createdAt,value
2019-05-07T00:01:06.691Z,7.30
2019-05-07T00:03:36.168Z,7.40
2019-05-07T00:06:05.754Z,6.80
2019-05-07T00:08:35.277Z,6.47
2019-05-07T00:11:04.772Z,6.03
2019-05-07T00:13:34.224Z,5.87
2019-05-07T00:16:03.690Z,5.97
2019-05-07T00:18:33.177Z,5.33
2019-05-07T00:21:03.509Z,5.60
2019-05-07T00:23:33.143Z,5.97
2019-05-07T00:26:03.736Z,5.80
2019-05-07T00:28:33.182Z,5.47
2019-05-07T00:31:03.015Z,5.13
2019-05-07T00:33:33.620Z,4.37
2019-05-07T00:36:28.451Z,4.03
2019-05-07T00:39:12.401Z,4.67
2019-05-07T00:41:52.226Z,4.10
2019-05-07T00:44:22.335Z,3.60
2019-05-07T00:46:53.538Z,3.73
2019-05-07T00:49:25.063Z,3.50
2019-05-07T00:51:54.521Z,3.50
2019-05-07T00:54:24.001Z,3.30
2019-05-07T00:56:53.507Z,3.00
2019-05-07T00:59:22.971Z,3.20
2019-05-07T01:01:52.894Z,2.90
2019-05-07T01:04:23.050Z,3.03
2019-05-07T01:06:53.554Z,3.37
2019-05-07T01:09:23.115Z,3.40
2019-05-07T01:11:52.670Z,2.90
2019-05-07T01:14:22.887Z,3.13
2019-05-07T01:16:53.014Z,2.57
2019-05-07T01:19:22.505Z,2.73
2019-05-07T01:21:52.595Z,2.77
2019-05-07T01:24:23.235Z,3.13
2019-05-07T01:26:53.154Z,3.00
2019-05-07T01:29:22.758Z,2.77
2019-05-07T01:31:58.308Z,2.73
2019-05-07T01:34:43.027Z,3.03
2019-05-07T01:37:12.599Z,3.00
2019-05-07T01:39:42.276Z,3.17
2019-05-07T01:42:12.776Z,3.10
2019-05-07T01:44:42.339Z,3.70
2019-05-07T01:47:13.044Z,3.70
2019-05-07T01:49:42.694Z,3.10
2019-05-07T01:52:13.324Z,3.00
2019-05-07T01:54:43.114Z,2.90
2019-05-07T01:57:12.582Z,3.20
2019-05-07T01:59:42.761Z,3.00
2019-05-07T02:02:34.086Z,2.90
2019-05-07T02:05:15.324Z,3.33
2019-05-07T02:07:52.144Z,2.60
2019-05-07T02:10:39.443Z,3.37
2019-05-07T02:13:08.928Z,2.93
2019-05-07T02:15:38.405Z,3.00
2019-05-07T02:18:07.912Z,3.13
2019-05-07T02:20:37.739Z,3.03
2019-05-07T02:23:07.230Z,2.77
2019-05-07T02:25:36.720Z,2.73
2019-05-07T02:28:06.192Z,2.90
2019-05-07T02:30:35.640Z,2.80
2019-05-07T02:33:05.103Z,2.67
2019-05-07T02:35:34.621Z,2.77
2019-05-07T02:38:18.444Z,2.90
2019-05-07T02:40:53.470Z,2.60
2019-05-07T02:43:23.331Z,3.13
2019-05-07T02:46:21.448Z,2.43
2019-05-07T02:48:42.591Z,2.93
2019-05-07T02:51:23.964Z,2.73
2019-05-07T02:54:13.353Z,2.60
2019-05-07T02:56:43.424Z,2.70
2019-05-07T02:59:13.696Z,2.60
2019-05-07T03:01:43.694Z,2.73
2019-05-07T03:04:13.227Z,2.43
2019-05-07T03:06:44.273Z,2.33
2019-05-07T03:09:14.777Z,3.13
2019-05-07T03:11:44.340Z,2.53
2019-05-07T03:14:14.339Z,2.27
2019-05-07T03:16:48.915Z,2.57
2019-05-07T03:19:15.483Z,2.90
2019-05-07T03:21:55.022Z,2.77
2019-05-07T03:24:46.941Z,2.57
2019-05-07T03:27:16.429Z,2.70
2019-05-07T03:29:53.716Z,2.60
2019-05-07T03:32:37.931Z,2.50
2019-05-07T03:35:38.303Z,2.50
2019-05-07T03:38:07.972Z,2.50
2019-05-07T03:40:37.648Z,2.30
2019-05-07T03:43:07.107Z,2.30
2019-05-07T03:45:55.529Z,2.20
2019-05-07T03:48:26.492Z,2.20
2019-05-07T03:50:55.937Z,2.07
2019-05-07T03:53:25.434Z,2.47
2019-05-07T03:55:54.937Z,1.93
2019-05-07T03:58:24.397Z,2.17
2019-05-07T04:00:54.102Z,1.80
2019-05-07T04:03:24.758Z,2.10
2019-05-07T04:05:54.625Z,1.70
2019-05-07T04:08:24.191Z,1.60
2019-05-07T04:10:54.216Z,2.00
2019-05-07T04:13:24.543Z,2.00
2019-05-07T04:15:54.278Z,2.00
2019-05-07T04:18:24.106Z,1.80
2019-05-07T04:20:54.145Z,1.87
2019-05-07T04:23:23.842Z,1.87
2019-05-07T04:26:15.793Z,1.53
2019-05-07T04:28:54.131Z,2.13
2019-05-07T04:31:25.611Z,1.90
2019-05-07T04:33:56.939Z,2.00
2019-05-07T04:36:28.772Z,1.73
2019-05-07T04:38:58.284Z,1.77
2019-05-07T04:41:27.778Z,1.60
2019-05-07T04:44:03.447Z,1.73
2019-05-07T04:46:33.405Z,1.60
2019-05-07T04:49:03.908Z,1.90
2019-05-07T04:51:53.125Z,1.80
2019-05-07T04:54:23.753Z,5.23
2019-05-07T04:56:53.591Z,2.30
2019-05-07T04:59:23.768Z,1.70
2019-05-07T05:02:06.955Z,2.10
2019-05-07T05:04:36.428Z,1.80
2019-05-07T05:07:05.914Z,1.70
2019-05-07T05:09:35.385Z,2.20
2019-05-07T05:12:04.898Z,2.40
2019-05-07T05:14:34.365Z,1.90
2019-05-07T05:17:03.868Z,1.90
2019-05-07T05:19:33.355Z,1.90
2019-05-07T05:22:24.879Z,1.80
2019-05-07T05:25:28.357Z,2.00
2019-05-07T05:27:57.841Z,1.87
2019-05-07T05:30:45.804Z,2.27
2019-05-07T05:33:15.367Z,1.90
2019-05-07T05:35:44.945Z,2.00
2019-05-07T05:38:14.442Z,2.03
2019-05-07T05:40:43.950Z,1.83
2019-05-07T05:43:23.343Z,1.60
2019-05-07T05:45:54.519Z,1.60
2019-05-07T05:48:24.060Z,1.97
2019-05-07T05:51:15.557Z,1.93
2019-05-07T05:53:52.946Z,1.80
2019-05-07T05:56:32.406Z,1.50
2019-05-07T05:59:47.422Z,1.53
2019-05-07T06:02:32.547Z,1.80
2019-05-07T06:05:36.101Z,1.40
2019-05-07T06:08:32.575Z,1.77
2019-05-07T06:11:23.715Z,1.40
2019-05-07T06:14:02.725Z,1.30
2019-05-07T06:16:36.800Z,1.70
2019-05-07T06:19:17.504Z,1.40
2019-05-07T06:22:04.754Z,1.73
2019-05-07T06:24:48.036Z,1.40
2019-05-07T06:27:17.519Z,1.50
2019-05-07T06:29:46.985Z,1.50
2019-05-07T06:32:18.160Z,1.70
2019-05-07T06:34:47.646Z,1.50
2019-05-07T06:37:17.221Z,1.40
2019-05-07T06:39:53.445Z,1.30
2019-05-07T06:43:00.205Z,1.40
2019-05-07T06:45:35.315Z,1.70
2019-05-07T06:48:04.387Z,1.70
2019-05-07T06:50:33.901Z,1.53
2019-05-07T06:53:03.362Z,1.70
2019-05-07T06:55:32.973Z,1.80
2019-05-07T06:58:03.148Z,1.30
2019-05-07T07:00:52.620Z,1.10
2019-05-07T07:03:41.983Z,1.40
2019-05-07T07:06:20.373Z,1.60
2019-05-07T07:09:08.791Z,1.00
2019-05-07T07:11:44.513Z,1.23
2019-05-07T07:14:14.016Z,1.10
2019-05-07T07:16:43.906Z,1.20
2019-05-07T07:19:13.384Z,1.20
2019-05-07T07:21:42.865Z,1.30
2019-05-07T07:24:12.782Z,1.30
2019-05-07T07:26:42.399Z,1.33
2019-05-07T07:29:13.678Z,1.10
2019-05-07T07:31:48.025Z,1.03
2019-05-07T07:34:17.810Z,1.07
2019-05-07T07:37:09.758Z,1.20
2019-05-07T07:39:36.321Z,1.20
2019-05-07T07:42:06.472Z,1.40
2019-05-07T07:44:35.992Z,1.50
2019-05-07T07:47:05.566Z,1.50
2019-05-07T07:49:35.067Z,1.40
2019-05-07T07:52:04.664Z,1.17
2019-05-07T07:54:34.205Z,1.37
2019-05-07T07:57:21.693Z,1.40
2019-05-07T08:00:11.796Z,1.10
2019-05-07T08:02:47.153Z,1.20
2019-05-07T08:05:16.639Z,1.70
2019-05-07T08:07:46.114Z,1.70
2019-05-07T08:10:15.840Z,1.70
2019-05-07T08:12:45.721Z,2.10
2019-05-07T08:15:20.875Z,2.10
2019-05-07T08:17:46.465Z,2.67
2019-05-07T08:20:16.448Z,2.50
2019-05-07T08:22:45.955Z,1.83
2019-05-07T08:25:15.854Z,1.57
2019-05-07T08:27:45.381Z,1.67
2019-05-07T08:30:19.121Z,1.80
2019-05-07T08:33:02.254Z,1.77
2019-05-07T08:35:41.999Z,1.67
2019-05-07T08:38:12.742Z,1.70
2019-05-07T08:40:42.547Z,2.03
2019-05-07T08:43:12.677Z,1.80
2019-05-07T08:46:11.972Z,1.70
2019-05-07T08:48:45.391Z,1.87
2019-05-07T08:51:14.853Z,2.10
2019-05-07T08:53:44.342Z,2.73
2019-05-07T08:56:13.907Z,1.90
2019-05-07T08:58:43.656Z,2.00
2019-05-07T09:01:13.156Z,1.90
2019-05-07T09:03:43.159Z,1.90
2019-05-07T09:06:14.272Z,1.77
2019-05-07T09:08:43.807Z,1.90
2019-05-07T09:11:13.512Z,1.90
2019-05-07T09:13:43.024Z,2.10
2019-05-07T09:16:13.084Z,2.10
2019-05-07T09:18:42.678Z,2.03
2019-05-07T09:21:12.669Z,2.30
2019-05-07T09:23:42.581Z,2.40
2019-05-07T09:26:14.199Z,2.20
2019-05-07T09:29:05.326Z,2.03
2019-05-07T09:31:53.763Z,2.50
2019-05-07T09:34:24.501Z,2.50
2019-05-07T09:36:55.700Z,2.57
2019-05-07T09:39:25.181Z,3.10
2019-05-07T09:41:54.671Z,3.13
2019-05-07T09:44:24.189Z,3.00
2019-05-07T09:46:53.680Z,3.20
2019-05-07T09:49:23.147Z,3.20
2019-05-07T09:51:52.614Z,3.00
2019-05-07T09:54:23.083Z,2.97
2019-05-07T09:56:52.662Z,3.20
2019-05-07T09:59:22.229Z,3.00
2019-05-07T10:01:51.943Z,3.23
2019-05-07T10:04:22.423Z,3.97
2019-05-07T10:06:52.036Z,3.20
2019-05-07T10:09:22.293Z,3.33
2019-05-07T10:12:12.182Z,3.70
2019-05-07T10:14:42.100Z,4.03
2019-05-07T10:17:17.377Z,4.07
2019-05-07T10:19:47.639Z,3.77
2019-05-07T10:22:17.109Z,4.23
2019-05-07T10:24:46.573Z,4.23
2019-05-07T10:27:16.185Z,4.17
2019-05-07T10:29:46.282Z,4.43
2019-05-07T10:32:15.752Z,4.23
2019-05-07T10:34:45.383Z,3.93
2019-05-07T10:37:14.887Z,4.77
2019-05-07T10:39:44.401Z,4.77
2019-05-07T10:42:13.890Z,4.47
2019-05-07T10:44:49.540Z,4.60
2019-05-07T10:47:44.016Z,4.60
2019-05-07T10:50:33.094Z,4.90
2019-05-07T10:52:52.811Z,4.37
2019-05-07T10:55:22.646Z,4.50
2019-05-07T10:57:52.837Z,4.53
2019-05-07T11:00:25.786Z,4.97
2019-05-07T11:02:55.306Z,5.13
2019-05-07T11:05:24.782Z,5.87
2019-05-07T11:07:54.412Z,4.90
2019-05-07T11:10:23.944Z,5.73
2019-05-07T11:12:53.432Z,5.93
2019-05-07T11:15:23.373Z,5.40
2019-05-07T11:18:02.719Z,5.47
2019-05-07T11:20:32.342Z,5.47
2019-05-07T11:23:02.609Z,5.57
2019-05-07T11:25:32.348Z,6.80
2019-05-07T11:28:02.827Z,7.43
2019-05-07T11:30:32.500Z,7.90
2019-05-07T11:33:02.734Z,8.17
2019-05-07T11:35:32.338Z,8.27
2019-05-07T11:38:16.782Z,9.77
2019-05-07T11:40:34.802Z,9.00
2019-05-07T11:43:23.662Z,9.50
2019-05-07T11:46:13.048Z,9.83
2019-05-07T11:48:52.244Z,9.47
2019-05-07T11:51:33.426Z,9.17
2019-05-07T11:54:13.651Z,10.37
2019-05-07T11:56:43.225Z,10.83
2019-05-07T11:59:13.575Z,10.07
2019-05-07T12:01:49.717Z,10.33
2019-05-07T12:04:19.392Z,10.53
2019-05-07T12:06:48.926Z,11.03
2019-05-07T12:09:18.468Z,10.37
2019-05-07T12:11:47.945Z,12.47
2019-05-07T12:14:28.150Z,11.87
2019-05-07T12:16:48.677Z,11.63
2019-05-07T12:19:18.192Z,12.23
2019-05-07T12:21:47.709Z,11.67
2019-05-07T12:24:17.269Z,11.47
2019-05-07T12:26:46.815Z,13.00
2019-05-07T12:29:16.322Z,10.50
2019-05-07T12:31:55.808Z,12.20
2019-05-07T12:34:50.102Z,12.63
2019-05-07T12:37:19.602Z,13.03
2019-05-07T12:39:49.125Z,13.53
2019-05-07T12:42:18.648Z,13.27
2019-05-07T12:44:48.178Z,13.07
2019-05-07T12:47:18.377Z,13.30
2019-05-07T12:49:47.939Z,12.17
2019-05-07T12:52:24.589Z,13.40
2019-05-07T12:55:12.000Z,13.43
2019-05-07T12:57:42.100Z,12.37
2019-05-07T13:00:32.190Z,13.53
2019-05-07T13:03:26.020Z,12.67
2019-05-07T13:05:55.573Z,14.03
2019-05-07T13:08:25.075Z,14.30
2019-05-07T13:10:54.555Z,15.17
2019-05-07T13:13:24.075Z,14.87
2019-05-07T13:15:53.552Z,12.47
2019-05-07T13:18:23.078Z,14.13
2019-05-07T13:20:52.623Z,12.53
2019-05-07T13:23:22.560Z,13.40
2019-05-07T13:25:52.504Z,13.57
2019-05-07T13:28:22.007Z,13.60
2019-05-07T13:30:52.622Z,13.43
2019-05-07T13:33:22.946Z,14.03
2019-05-07T13:35:53.201Z,12.30
2019-05-07T13:38:42.665Z,13.77
2019-05-07T13:41:31.207Z,11.90
2019-05-07T13:44:26.301Z,13.23
2019-05-07T13:47:15.140Z,12.30
2019-05-07T13:49:45.189Z,13.13
2019-05-07T13:52:16.189Z,12.90
2019-05-07T13:54:45.773Z,13.00
2019-05-07T13:57:15.560Z,14.00
2019-05-07T13:59:45.391Z,14.50
2019-05-07T14:02:17.549Z,15.07
2019-05-07T14:04:47.072Z,15.73
2019-05-07T14:07:16.977Z,15.50
2019-05-07T14:09:46.513Z,16.13
2019-05-07T14:12:16.216Z,14.37
2019-05-07T14:14:46.385Z,14.10
2019-05-07T14:17:15.888Z,14.63
2019-05-07T14:19:45.418Z,14.27
2019-05-07T14:22:18.852Z,14.93
2019-05-07T14:24:46.165Z,12.67
2019-05-07T14:27:15.799Z,12.90
2019-05-07T14:29:45.375Z,13.83
2019-05-07T14:32:24.043Z,14.43
2019-05-07T14:35:07.125Z,13.50
2019-05-07T14:37:42.697Z,12.53
2019-05-07T14:40:13.105Z,13.80
2019-05-07T14:42:47.320Z,13.37
2019-05-07T14:45:16.821Z,13.77
2019-05-07T14:47:46.469Z,14.20
2019-05-07T14:50:16.327Z,14.50
2019-05-07T14:52:45.920Z,14.67
2019-05-07T14:55:15.412Z,14.23
2019-05-07T14:57:44.949Z,13.33
2019-05-07T15:00:15.326Z,13.53
2019-05-07T15:02:44.802Z,13.43
2019-05-07T15:05:14.525Z,14.70
2019-05-07T15:07:44.134Z,14.30
2019-05-07T15:10:13.730Z,14.57
2019-05-07T15:12:43.458Z,15.97
2019-05-07T15:15:13.147Z,15.67
2019-05-07T15:17:48.720Z,15.33
2019-05-07T15:20:18.300Z,16.13
2019-05-07T15:23:11.944Z,16.27
2019-05-07T15:25:41.990Z,15.50
2019-05-07T15:28:12.270Z,15.83
2019-05-07T15:30:54.274Z,17.53
2019-05-07T15:33:23.932Z,17.00
2019-05-07T15:35:53.457Z,16.27
2019-05-07T15:38:22.938Z,16.50
2019-05-07T15:40:52.548Z,16.87
2019-05-07T15:43:22.131Z,17.93
2019-05-07T15:45:52.444Z,17.23
2019-05-07T15:48:22.138Z,17.00
2019-05-07T15:50:52.081Z,17.30
2019-05-07T15:53:25.987Z,17.77
2019-05-07T15:55:55.481Z,17.33
2019-05-07T15:58:25.004Z,17.03
2019-05-07T16:00:54.504Z,18.00
2019-05-07T16:03:32.795Z,16.63
2019-05-07T16:06:03.845Z,17.03
2019-05-07T16:08:36.907Z,16.70
2019-05-07T16:11:06.444Z,17.00
2019-05-07T16:13:38.349Z,17.00
2019-05-07T16:16:07.881Z,17.07
2019-05-07T16:18:56.303Z,16.83
2019-05-07T16:21:25.804Z,17.67
2019-05-07T16:23:55.365Z,17.70
2019-05-07T16:26:24.837Z,17.07
2019-05-07T16:28:54.340Z,16.50
2019-05-07T16:31:24.651Z,17.70
2019-05-07T16:33:54.431Z,17.20
2019-05-07T16:36:23.957Z,16.20
2019-05-07T16:38:53.452Z,17.30
2019-05-07T16:41:22.987Z,17.53
2019-05-07T16:43:52.544Z,18.00
2019-05-07T16:46:22.519Z,17.40
2019-05-07T16:48:52.156Z,18.03
2019-05-07T16:51:22.305Z,17.33
2019-05-07T16:53:52.534Z,17.40
2019-05-07T16:56:22.703Z,18.10
2019-05-07T16:59:02.311Z,17.97
2019-05-07T17:01:32.554Z,17.37
2019-05-07T17:04:02.863Z,16.20
2019-05-07T17:06:32.598Z,18.37
2019-05-07T17:09:10.253Z,18.40
2019-05-07T17:11:40.072Z,18.07
2019-05-07T17:14:09.601Z,18.00
2019-05-07T17:16:40.025Z,18.80
2019-05-07T17:19:11.837Z,17.60
2019-05-07T17:21:43.134Z,17.23
2019-05-07T17:24:12.779Z,17.90
2019-05-07T17:26:42.511Z,17.37
2019-05-07T17:29:12.180Z,17.93
2019-05-07T17:31:42.458Z,17.80
2019-05-07T17:34:12.210Z,18.77
2019-05-07T17:36:42.321Z,17.73
2019-05-07T17:39:12.353Z,17.80
2019-05-07T17:41:43.038Z,17.63
2019-05-07T17:44:12.640Z,17.83
2019-05-07T17:46:42.895Z,17.77
2019-05-07T17:49:13.407Z,16.37
2019-05-07T17:51:46.370Z,16.97
2019-05-07T17:54:15.883Z,17.17
2019-05-07T17:56:45.527Z,16.17
2019-05-07T17:59:15.059Z,16.87
2019-05-07T18:02:02.180Z,17.97
2019-05-07T18:04:47.650Z,16.73
2019-05-07T18:07:05.296Z,16.83
2019-05-07T18:09:36.884Z,16.23
2019-05-07T18:12:06.436Z,16.63
2019-05-07T18:14:36.305Z,16.80
2019-05-07T18:17:14.393Z,16.13
2019-05-07T18:19:45.674Z,17.33
2019-05-07T18:22:15.202Z,16.13
2019-05-07T18:24:46.829Z,15.77
2019-05-07T18:27:25.900Z,15.20
2019-05-07T18:29:55.380Z,14.87
2019-05-07T18:32:32.388Z,15.53
2019-05-07T18:35:02.429Z,14.10
2019-05-07T18:37:32.657Z,14.80
2019-05-07T18:40:02.629Z,14.17
2019-05-07T18:42:32.814Z,14.90
2019-05-07T18:45:02.320Z,14.90
2019-05-07T18:47:33.144Z,14.70
2019-05-07T18:50:04.433Z,13.90
2019-05-07T18:52:33.924Z,14.20
2019-05-07T18:55:03.418Z,14.27
2019-05-07T18:57:32.949Z,14.57
2019-05-07T19:00:05.180Z,13.03
2019-05-07T19:02:33.780Z,12.93
2019-05-07T19:05:03.448Z,13.40
2019-05-07T19:07:32.929Z,13.20
2019-05-07T19:10:02.805Z,12.30
2019-05-07T19:12:34.090Z,12.87
2019-05-07T19:15:03.859Z,13.83
2019-05-07T19:17:33.551Z,12.60
2019-05-07T19:20:03.493Z,13.23
2019-05-07T19:22:33.251Z,12.80
2019-05-07T19:25:03.181Z,12.87
2019-05-07T19:27:32.924Z,12.80
2019-05-07T19:30:02.478Z,12.77
2019-05-07T19:32:32.403Z,13.47
2019-05-07T19:35:04.302Z,11.70
2019-05-07T19:37:33.880Z,12.90
2019-05-07T19:40:03.398Z,13.40
2019-05-07T19:42:32.915Z,13.07
2019-05-07T19:45:02.767Z,12.40
2019-05-07T19:47:32.814Z,13.20
2019-05-07T19:50:02.444Z,12.97
2019-05-07T19:52:33.187Z,13.27
2019-05-07T19:55:04.856Z,13.20
2019-05-07T19:57:39.173Z,14.10
2019-05-07T20:00:09.292Z,13.63
2019-05-07T20:02:43.814Z,13.37
2019-05-07T20:05:13.427Z,12.43
2019-05-07T20:07:42.973Z,11.37
2019-05-07T20:10:14.494Z,12.90
2019-05-07T20:12:44.017Z,13.57
2019-05-07T20:15:13.828Z,12.90
2019-05-07T20:17:43.345Z,11.50
2019-05-07T20:20:13.715Z,12.80
2019-05-07T20:22:43.286Z,11.97
2019-05-07T20:25:18.780Z,12.43
2019-05-07T20:27:43.986Z,12.40
2019-05-07T20:30:13.486Z,12.20
2019-05-07T20:32:42.955Z,11.20
2019-05-07T20:35:13.265Z,11.80
2019-05-07T20:37:42.731Z,12.23
2019-05-07T20:40:12.501Z,11.03
2019-05-07T20:42:42.807Z,10.67
2019-05-07T20:45:12.481Z,10.97
2019-05-07T20:47:42.238Z,11.07
2019-05-07T20:50:12.715Z,11.50
2019-05-07T20:52:42.370Z,11.00
2019-05-07T20:55:30.848Z,11.40
2019-05-07T20:57:58.284Z,11.80
2019-05-07T21:00:28.669Z,11.97
2019-05-07T21:03:23.397Z,11.80
2019-05-07T21:05:53.231Z,11.33
2019-05-07T21:08:23.112Z,11.10
2019-05-07T21:10:53.759Z,11.00
2019-05-07T21:13:30.396Z,11.57
2019-05-07T21:15:54.854Z,10.83
2019-05-07T21:18:24.357Z,11.23
2019-05-07T21:20:53.871Z,11.17
2019-05-07T21:23:23.490Z,11.30
2019-05-07T21:25:53.280Z,10.70
2019-05-07T21:28:22.882Z,10.93
2019-05-07T21:30:52.503Z,10.50
2019-05-07T21:33:22.856Z,10.37
2019-05-07T21:35:52.660Z,10.73
2019-05-07T21:38:24.148Z,10.17
2019-05-07T21:40:53.694Z,10.80
2019-05-07T21:43:23.162Z,10.10
2019-05-07T21:45:53.120Z,10.90
2019-05-07T21:48:22.754Z,11.03
2019-05-07T21:50:52.617Z,11.00
2019-05-07T21:53:32.360Z,10.53
2019-05-07T21:56:16.256Z,10.60
2019-05-07T21:58:53.924Z,10.57
2019-05-07T22:01:32.579Z,10.70
2019-05-07T22:04:01.973Z,10.17
2019-05-07T22:06:31.681Z,10.47
2019-05-07T22:09:01.984Z,10.63
2019-05-07T22:11:32.325Z,10.30
2019-05-07T22:14:02.236Z,11.30
2019-05-07T22:16:32.877Z,10.77
2019-05-07T22:19:02.737Z,9.93
2019-05-07T22:21:34.303Z,11.00
2019-05-07T22:24:03.604Z,11.00
2019-05-07T22:26:33.079Z,10.93
2019-05-07T22:29:03.207Z,10.70
2019-05-07T22:31:44.244Z,10.43
2019-05-07T22:34:27.712Z,10.07
2019-05-07T22:36:57.211Z,11.17
2019-05-07T22:39:26.889Z,10.87
2019-05-07T22:41:56.408Z,11.07
2019-05-07T22:44:26.472Z,11.10
2019-05-07T22:46:57.986Z,10.70
2019-05-07T22:49:27.452Z,11.00
2019-05-07T22:51:56.921Z,10.93
2019-05-07T22:54:26.466Z,10.83
2019-05-07T22:57:14.613Z,10.80
2019-05-07T22:59:44.073Z,10.27
2019-05-07T23:02:13.572Z,10.83
2019-05-07T23:04:43.269Z,9.90
2019-05-07T23:07:12.883Z,10.63
2019-05-07T23:09:44.867Z,10.47
2019-05-07T23:12:13.629Z,10.03
2019-05-07T23:14:43.095Z,10.57
2019-05-07T23:17:12.711Z,10.77
2019-05-07T23:19:42.177Z,10.67
2019-05-07T23:22:13.535Z,10.60
2019-05-07T23:24:42.926Z,10.70
2019-05-07T23:27:14.794Z,11.00
2019-05-07T23:29:43.966Z,10.87
2019-05-07T23:32:13.811Z,10.23
2019-05-07T23:34:43.295Z,10.50
2019-05-07T23:37:12.795Z,11.10
2019-05-07T23:39:43.948Z,10.97
2019-05-07T23:42:17.295Z,11.00
2019-05-07T23:44:46.786Z,10.50
2019-05-07T23:47:16.284Z,10.47
2019-05-07T23:49:45.794Z,10.80
2019-05-07T23:52:15.289Z,11.13
2019-05-07T23:54:44.792Z,9.70
2019-05-07T23:57:15.427Z,10.40
2019-05-07T23:59:45.049Z,11.13
